createdAt,value
2017-05-28T00:00:08.500Z,64.42
2017-05-28T00:02:36.042Z,66.93
2017-05-28T00:05:03.594Z,66.06
2017-05-28T00:07:31.202Z,65.38
2017-05-28T00:09:58.743Z,64.79
2017-05-28T00:12:26.289Z,65.25
2017-05-28T00:14:54.046Z,64.91
2017-05-28T00:17:21.598Z,64.27
2017-05-28T00:19:49.141Z,63.62
2017-05-28T00:22:16.798Z,64.12
2017-05-28T00:24:44.711Z,64.41
2017-05-28T00:27:12.491Z,65.30
2017-05-28T00:29:40.068Z,65.43
2017-05-28T00:32:07.666Z,66.62
2017-05-28T00:34:35.564Z,66.73
2017-05-28T00:37:03.115Z,66.30
2017-05-28T00:39:30.731Z,66.61
2017-05-28T00:41:58.282Z,66.28
2017-05-28T00:44:26.181Z,64.70
2017-05-28T00:46:53.789Z,64.03
2017-05-28T00:49:21.415Z,65.07
2017-05-28T00:51:48.970Z,65.09
2017-05-28T00:54:16.770Z,65.23
2017-05-28T00:56:44.317Z,65.27
2017-05-28T00:59:11.868Z,64.81
2017-05-28T01:01:39.445Z,64.64
2017-05-28T01:04:07.264Z,64.69
2017-05-28T01:06:34.815Z,65.25
2017-05-28T01:09:02.735Z,64.83
2017-05-28T01:11:30.358Z,64.59
2017-05-28T01:13:57.952Z,64.54
2017-05-28T01:16:26.381Z,64.81
2017-05-28T01:18:54.160Z,64.65
2017-05-28T01:21:21.765Z,65.19
2017-05-28T01:23:49.338Z,65.04
2017-05-28T01:26:17.119Z,65.02
2017-05-28T01:28:44.942Z,65.02
2017-05-28T01:31:12.540Z,64.97
2017-05-28T01:33:40.092Z,65.23
2017-05-28T01:36:07.632Z,64.40
2017-05-28T01:38:35.238Z,64.67
2017-05-28T01:41:02.809Z,64.43
2017-05-28T01:43:30.363Z,64.66
2017-05-28T01:45:57.962Z,64.41
2017-05-28T01:48:25.837Z,64.96
2017-05-28T01:50:53.385Z,65.05
2017-05-28T01:53:20.988Z,65.24
2017-05-28T01:55:48.537Z,65.42
2017-05-28T01:58:16.183Z,65.26
2017-05-28T02:00:43.907Z,64.33
2017-05-28T02:03:11.457Z,65.93
2017-05-28T02:05:39.452Z,65.69
2017-05-28T02:08:07.046Z,65.24
2017-05-28T02:10:34.599Z,64.74
2017-05-28T02:13:02.375Z,64.38
2017-05-28T02:15:29.963Z,64.21
2017-05-28T02:17:57.504Z,64.41
2017-05-28T02:20:25.051Z,64.19
2017-05-28T02:22:52.634Z,65.28
2017-05-28T02:25:20.175Z,64.66
2017-05-28T02:27:48.015Z,64.77
2017-05-28T02:30:15.747Z,64.67
2017-05-28T02:32:43.295Z,64.17
2017-05-28T02:35:10.839Z,64.62
2017-05-28T02:37:38.455Z,64.13
2017-05-28T02:40:06.003Z,64.15
2017-05-28T02:42:33.546Z,64.13
2017-05-28T02:45:01.128Z,64.16
2017-05-28T02:47:28.672Z,63.89
2017-05-28T02:49:56.246Z,64.90
2017-05-28T02:52:23.859Z,64.23
2017-05-28T02:54:51.398Z,64.42
2017-05-28T02:57:19.173Z,64.11
2017-05-28T02:59:46.754Z,64.10
2017-05-28T03:02:14.378Z,64.70
2017-05-28T03:04:41.938Z,64.44
2017-05-28T03:07:09.794Z,64.33
2017-05-28T03:09:37.405Z,64.79
2017-05-28T03:12:04.963Z,64.51
2017-05-28T03:14:32.529Z,64.12
2017-05-28T03:17:00.113Z,64.21
2017-05-28T03:19:27.659Z,64.13
2017-05-28T03:21:55.244Z,63.74
2017-05-28T03:24:22.827Z,64.04
2017-05-28T03:26:50.382Z,64.49
2017-05-28T03:29:18.234Z,64.74
2017-05-28T03:31:45.834Z,64.23
2017-05-28T03:37:34.274Z,63.73
2017-05-28T03:40:01.853Z,63.88
2017-05-28T03:42:29.396Z,64.03
2017-05-28T03:44:57.031Z,64.08
2017-05-28T03:47:24.574Z,64.22
2017-05-28T03:49:52.136Z,65.00
2017-05-28T03:52:19.938Z,64.41
2017-05-28T03:54:47.798Z,65.07
2017-05-28T03:57:15.346Z,65.20
2017-05-28T03:59:42.966Z,64.45
2017-05-28T04:02:10.545Z,65.00
2017-05-28T04:04:38.554Z,64.31
2017-05-28T04:07:06.095Z,63.85
2017-05-28T04:09:33.669Z,63.77
2017-05-28T04:12:01.232Z,64.87
2017-05-28T04:14:29.094Z,64.84
2017-05-28T04:16:56.689Z,63.96
2017-05-28T04:19:24.274Z,63.83
2017-05-28T04:21:51.849Z,63.33
2017-05-28T04:24:19.429Z,63.14
2017-05-28T04:26:46.973Z,62.32
2017-05-28T04:29:14.546Z,63.66
2017-05-28T04:31:42.882Z,63.41
2017-05-28T04:34:10.451Z,62.10
2017-05-28T04:36:38.235Z,63.16
2017-05-28T04:39:05.843Z,62.30
2017-05-28T04:41:33.384Z,62.41
2017-05-28T04:44:00.937Z,61.43
2017-05-28T04:46:28.553Z,61.00
2017-05-28T04:48:56.370Z,60.47
2017-05-28T04:51:23.921Z,60.07
2017-05-28T04:53:51.522Z,59.55
2017-05-28T04:56:19.070Z,59.27
2017-05-28T04:58:46.921Z,59.93
2017-05-28T05:01:14.509Z,59.54
2017-05-28T05:03:42.124Z,59.19
2017-05-28T05:06:09.692Z,58.90
2017-05-28T05:08:37.278Z,58.51
2017-05-28T05:11:04.830Z,58.40
2017-05-28T05:13:32.550Z,58.62
2017-05-28T05:16:00.233Z,57.21
2017-05-28T05:18:27.795Z,58.65
2017-05-28T05:20:55.350Z,58.10
2017-05-28T05:23:23.015Z,57.19
2017-05-28T05:25:50.562Z,56.73
2017-05-28T05:28:18.346Z,56.43
2017-05-28T05:30:46.179Z,56.46
2017-05-28T05:33:13.962Z,56.57
2017-05-28T05:35:41.787Z,56.46
2017-05-28T05:38:09.366Z,56.94
2017-05-28T05:40:37.161Z,58.13
2017-05-28T05:43:04.711Z,56.65
2017-05-28T05:45:32.323Z,55.26
2017-05-28T05:48:34.371Z,54.47
2017-05-28T05:51:02.024Z,55.95
2017-05-28T05:53:29.592Z,54.91
2017-05-28T05:55:57.154Z,54.75
2017-05-28T05:58:24.739Z,54.34
2017-05-28T06:00:52.339Z,56.09
2017-05-28T06:03:19.881Z,55.39
2017-05-28T06:05:47.658Z,55.41
2017-05-28T06:08:15.258Z,55.90
2017-05-28T06:10:42.812Z,55.68
2017-05-28T06:13:10.391Z,55.31
2017-05-28T06:15:37.979Z,56.25
2017-05-28T06:18:05.770Z,54.72
2017-05-28T06:20:33.346Z,53.69
2017-05-28T06:23:02.045Z,56.21
2017-05-28T06:25:29.836Z,58.58
2017-05-28T06:27:57.387Z,58.07
2017-05-28T06:30:24.962Z,55.07
2017-05-28T06:32:52.494Z,56.03
2017-05-28T06:35:20.867Z,56.41
2017-05-28T06:37:48.451Z,54.14
2017-05-28T06:40:16.006Z,54.97
2017-05-28T06:42:43.554Z,51.75
2017-05-28T06:45:11.146Z,53.82
2017-05-28T06:47:38.947Z,51.43
2017-05-28T06:50:06.492Z,52.32
2017-05-28T06:52:34.277Z,51.24
2017-05-28T06:55:01.999Z,51.03
2017-05-28T06:57:29.779Z,50.93
2017-05-28T06:59:57.461Z,50.50
2017-05-28T07:02:25.113Z,53.31
2017-05-28T07:04:53.011Z,53.37
2017-05-28T07:07:20.558Z,52.62
2017-05-28T07:09:48.175Z,51.13
2017-05-28T07:12:15.749Z,50.84
2017-05-28T07:14:43.601Z,50.43
2017-05-28T07:17:11.235Z,50.24
2017-05-28T07:19:38.840Z,50.81
2017-05-28T07:22:06.406Z,50.35
2017-05-28T07:24:34.097Z,50.80
2017-05-28T07:27:02.428Z,50.77
2017-05-28T07:29:29.974Z,50.69
2017-05-28T07:31:57.590Z,53.12
2017-05-28T07:34:25.130Z,55.01
2017-05-28T07:36:52.698Z,52.64
2017-05-28T07:39:20.293Z,52.04
2017-05-28T07:41:47.838Z,53.38
2017-05-28T07:44:15.389Z,51.72
2017-05-28T07:46:43.572Z,50.97
2017-05-28T07:49:11.196Z,50.89
2017-05-28T07:51:38.987Z,52.54
2017-05-28T07:54:06.571Z,55.58
2017-05-28T07:56:34.368Z,55.74
2017-05-28T07:59:02.106Z,54.45
2017-05-28T08:01:29.686Z,55.62
2017-05-28T08:03:57.230Z,55.64
2017-05-28T08:06:25.001Z,55.84
2017-05-28T08:08:52.594Z,53.30
2017-05-28T08:11:20.160Z,53.73
2017-05-28T08:13:47.949Z,51.34
2017-05-28T08:16:15.868Z,53.29
2017-05-28T08:18:43.520Z,52.45
2017-05-28T08:21:11.971Z,52.59
2017-05-28T08:23:39.714Z,52.93
2017-05-28T08:26:07.280Z,50.16
2017-05-28T08:28:34.859Z,50.63
2017-05-28T08:31:02.470Z,50.64
2017-05-28T08:33:30.024Z,51.32
2017-05-28T08:35:58.671Z,49.08
2017-05-28T08:38:26.284Z,51.88
2017-05-28T08:40:53.868Z,51.85
2017-05-28T08:43:21.442Z,50.68
2017-05-28T08:45:49.039Z,51.57
2017-05-28T08:48:16.582Z,51.39
2017-05-28T08:50:44.445Z,52.05
2017-05-28T08:53:12.083Z,51.86
2017-05-28T08:55:39.651Z,50.25
2017-05-28T08:58:07.217Z,51.42
2017-05-28T09:00:34.822Z,51.80
2017-05-28T09:03:02.647Z,51.65
2017-05-28T09:05:30.200Z,51.17
2017-05-28T09:07:57.802Z,52.09
2017-05-28T09:10:25.362Z,51.62
2017-05-28T09:12:52.904Z,52.02
2017-05-28T09:15:20.515Z,51.36
2017-05-28T09:17:48.087Z,50.51
2017-05-28T09:20:15.627Z,50.57
2017-05-28T09:22:43.203Z,50.76
2017-05-28T09:25:11.045Z,50.33
2017-05-28T09:27:38.597Z,51.68
2017-05-28T09:30:55.434Z,51.53
2017-05-28T09:33:23.054Z,49.36
2017-05-28T09:35:50.668Z,50.89
2017-05-28T09:38:18.267Z,49.61
2017-05-28T09:40:45.885Z,48.50
2017-05-28T09:43:13.442Z,48.53
2017-05-28T09:45:41.004Z,48.09
2017-05-28T09:48:08.598Z,47.71
2017-05-28T09:50:36.163Z,48.93
2017-05-28T09:53:03.941Z,49.00
2017-05-28T09:55:31.603Z,46.57
2017-05-28T09:57:59.191Z,47.07
2017-05-28T10:01:01.683Z,44.95
2017-05-28T10:03:29.465Z,47.37
2017-05-28T10:05:57.021Z,45.29
2017-05-28T10:08:24.626Z,44.92
2017-05-28T10:10:52.170Z,46.35
2017-05-28T10:13:19.776Z,46.39
2017-05-28T10:15:47.478Z,46.21
2017-05-28T10:18:15.039Z,43.75
2017-05-28T10:20:42.890Z,43.20
2017-05-28T10:23:10.498Z,45.93
2017-05-28T10:25:38.083Z,44.79
2017-05-28T10:28:05.698Z,44.14
2017-05-28T10:30:33.633Z,44.28
2017-05-28T10:33:01.989Z,43.27
2017-05-28T10:35:29.838Z,43.89
2017-05-28T10:37:57.511Z,43.45
2017-05-28T10:40:25.211Z,43.85
2017-05-28T10:42:53.004Z,44.75
2017-05-28T10:45:20.735Z,43.62
2017-05-28T10:47:48.622Z,44.06
2017-05-28T10:50:16.167Z,44.74
2017-05-28T10:52:43.757Z,43.67
2017-05-28T10:55:11.306Z,42.21
2017-05-28T10:57:39.162Z,41.25
2017-05-28T11:00:08.260Z,41.84
2017-05-28T11:02:35.804Z,40.91
2017-05-28T11:05:03.681Z,40.67
2017-05-28T11:07:31.254Z,40.62
2017-05-28T11:09:58.792Z,40.68
2017-05-28T11:12:26.351Z,41.73
2017-05-28T11:14:53.918Z,43.36
2017-05-28T11:17:21.793Z,41.83
2017-05-28T11:19:49.586Z,42.13
2017-05-28T11:22:17.667Z,41.18
2017-05-28T11:24:45.214Z,42.85
2017-05-28T11:27:12.784Z,39.47
2017-05-28T11:29:41.203Z,39.53
2017-05-28T11:32:08.798Z,38.81
2017-05-28T11:34:36.647Z,39.75
2017-05-28T11:37:04.253Z,39.46
2017-05-28T11:39:31.834Z,41.55
2017-05-28T11:41:59.415Z,42.00
2017-05-28T11:44:26.963Z,42.50
2017-05-28T11:46:54.549Z,39.76
2017-05-28T11:49:22.324Z,42.17
2017-05-28T11:51:50.103Z,41.40
2017-05-28T11:54:17.705Z,38.56
2017-05-28T11:56:45.311Z,38.62
2017-05-28T11:59:12.850Z,37.89
2017-05-28T12:01:40.429Z,37.83
2017-05-28T12:04:07.978Z,38.06
2017-05-28T12:06:35.535Z,38.79
2017-05-28T12:09:03.129Z,38.92
2017-05-28T12:11:30.976Z,39.06
2017-05-28T12:13:58.544Z,37.80
2017-05-28T12:16:26.122Z,38.57
2017-05-28T12:18:53.669Z,39.02
2017-05-28T12:21:21.524Z,38.75
2017-05-28T12:23:49.103Z,38.33
2017-05-28T12:26:16.647Z,38.07
2017-05-28T12:28:44.945Z,38.27
2017-05-28T12:31:12.532Z,37.17
2017-05-28T12:33:40.103Z,38.48
2017-05-28T12:36:07.648Z,38.25
2017-05-28T12:38:35.235Z,36.39
2017-05-28T12:41:02.791Z,38.80
2017-05-28T12:43:30.390Z,38.67
2017-05-28T12:45:57.998Z,39.29
2017-05-28T12:48:25.566Z,38.53
2017-05-28T12:50:53.474Z,38.55
2017-05-28T12:53:21.121Z,41.34
2017-05-28T12:55:48.989Z,40.89
2017-05-28T12:58:16.762Z,40.41
2017-05-28T13:00:44.435Z,39.96
2017-05-28T13:03:12.013Z,39.83
2017-05-28T13:05:39.779Z,39.86
2017-05-28T13:08:07.370Z,41.13
2017-05-28T13:10:34.923Z,40.42
2017-05-28T13:13:02.826Z,42.74
2017-05-28T13:15:30.984Z,41.27
2017-05-28T13:17:58.553Z,41.37
2017-05-28T13:20:26.170Z,39.58
2017-05-28T13:22:53.791Z,39.80
2017-05-28T13:25:21.338Z,39.53
2017-05-28T13:27:48.891Z,39.36
2017-05-28T13:30:16.971Z,41.44
2017-05-28T13:32:44.761Z,40.41
2017-05-28T13:35:12.310Z,41.89
2017-05-28T13:37:40.117Z,41.08
2017-05-28T13:40:07.669Z,41.06
2017-05-28T13:42:35.225Z,40.63
2017-05-28T13:45:02.824Z,40.73
2017-05-28T13:47:30.362Z,40.29
2017-05-28T13:49:57.918Z,40.40
2017-05-28T13:52:25.529Z,40.11
2017-05-28T13:54:53.078Z,40.81
2017-05-28T13:57:20.957Z,40.18
2017-05-28T13:59:48.539Z,40.21
2017-05-28T14:02:16.158Z,41.55
2017-05-28T14:04:43.697Z,41.22
2017-05-28T14:07:11.246Z,41.27
2017-05-28T14:09:38.871Z,40.64
2017-05-28T14:12:07.261Z,40.69
2017-05-28T14:14:34.913Z,41.05
2017-05-28T14:17:02.543Z,42.39
2017-05-28T14:19:31.283Z,41.65
2017-05-28T14:21:59.003Z,41.41
2017-05-28T14:24:26.622Z,42.44
2017-05-28T14:26:54.174Z,43.10
2017-05-28T14:29:21.752Z,43.13
2017-05-28T14:31:49.327Z,44.34
2017-05-28T14:34:16.870Z,43.75
2017-05-28T14:36:44.420Z,44.44
2017-05-28T14:39:12.013Z,43.55
2017-05-28T14:41:39.576Z,42.86
2017-05-28T14:44:07.133Z,42.88
2017-05-28T14:46:34.763Z,42.97
2017-05-28T14:49:02.675Z,42.44
2017-05-28T14:51:30.260Z,42.56
2017-05-28T14:53:57.869Z,43.09
2017-05-28T14:56:25.764Z,42.55
2017-05-28T14:58:53.322Z,42.14
2017-05-28T15:01:21.010Z,42.50
2017-05-28T15:03:50.143Z,42.97
2017-05-28T15:06:18.782Z,43.95
2017-05-28T15:08:46.414Z,43.40
2017-05-28T15:11:13.961Z,43.15
2017-05-28T15:13:41.536Z,43.22
2017-05-28T15:16:09.131Z,43.14
2017-05-28T15:18:37.789Z,43.74
2017-05-28T15:21:05.662Z,43.99
2017-05-28T15:23:33.266Z,43.85
2017-05-28T15:26:00.835Z,44.07
2017-05-28T15:28:28.415Z,43.76
2017-05-28T15:30:55.994Z,43.58
2017-05-28T15:33:24.474Z,43.51
2017-05-28T15:35:52.022Z,44.46
2017-05-28T15:38:20.517Z,44.51
2017-05-28T15:40:48.067Z,43.96
2017-05-28T15:43:15.622Z,43.40
2017-05-28T15:45:43.230Z,43.25
2017-05-28T15:48:10.786Z,43.60
2017-05-28T15:50:38.417Z,46.05
2017-05-28T15:53:06.068Z,45.59
2017-05-28T15:55:33.742Z,45.48
2017-05-28T15:58:01.471Z,46.09
2017-05-28T16:00:29.179Z,45.65
2017-05-28T16:02:56.958Z,45.38
2017-05-28T16:05:25.252Z,44.50
2017-05-28T16:07:52.845Z,44.21
2017-05-28T16:10:20.394Z,44.18
2017-05-28T16:12:48.308Z,44.38
2017-05-28T16:15:15.938Z,45.20
2017-05-28T16:17:43.554Z,44.40
2017-05-28T16:20:11.770Z,45.87
2017-05-28T16:22:39.623Z,47.29
2017-05-28T16:25:07.198Z,45.86
2017-05-28T16:27:34.820Z,45.82
2017-05-28T16:30:02.621Z,45.43
2017-05-28T16:32:30.339Z,45.98
2017-05-28T16:34:58.144Z,46.20
2017-05-28T16:37:25.709Z,46.93
2017-05-28T16:39:53.474Z,46.60
2017-05-28T16:42:21.098Z,46.02
2017-05-28T16:44:48.666Z,45.74
2017-05-28T16:47:16.295Z,46.29
2017-05-28T16:49:44.368Z,45.66
2017-05-28T16:52:12.341Z,45.64
2017-05-28T16:54:40.602Z,45.61
2017-05-28T16:57:08.544Z,45.42
2017-05-28T16:59:36.141Z,45.23
2017-05-28T17:02:04.042Z,45.50
2017-05-28T17:04:31.896Z,46.24
2017-05-28T17:06:59.781Z,48.38
2017-05-28T17:09:27.402Z,49.09
2017-05-28T17:11:56.186Z,51.12
2017-05-28T17:14:23.786Z,52.30
2017-05-28T17:16:52.941Z,52.84
2017-05-28T17:19:20.495Z,51.93
2017-05-28T17:21:48.331Z,51.85
2017-05-28T17:24:15.942Z,49.96
2017-05-28T17:26:43.799Z,48.82
2017-05-28T17:29:11.370Z,48.76
2017-05-28T17:31:39.306Z,48.87
2017-05-28T17:34:06.855Z,48.95
2017-05-28T17:36:34.412Z,48.56
2017-05-28T17:39:02.009Z,48.15
2017-05-28T17:41:29.558Z,48.72
2017-05-28T17:43:57.124Z,48.49
2017-05-28T17:46:24.736Z,48.15
2017-05-28T17:48:52.302Z,49.47
2017-05-28T17:51:19.990Z,48.81
2017-05-28T17:53:47.651Z,49.76
2017-05-28T17:56:15.494Z,50.16
2017-05-28T17:58:43.341Z,49.79
2017-05-28T18:01:10.929Z,49.63
2017-05-28T18:03:38.493Z,49.92
2017-05-28T18:06:06.258Z,50.23
2017-05-28T18:08:33.877Z,49.84
2017-05-28T18:11:01.453Z,49.94
2017-05-28T18:13:29.924Z,50.51
2017-05-28T18:15:57.550Z,49.71
2017-05-28T18:18:25.341Z,50.34
2017-05-28T18:20:53.552Z,50.40
2017-05-28T18:23:21.187Z,50.16
2017-05-28T18:25:48.774Z,50.37
2017-05-28T18:28:16.712Z,50.30
2017-05-28T18:30:46.178Z,50.08
2017-05-28T18:33:13.734Z,49.82
2017-05-28T18:35:43.159Z,49.40
2017-05-28T18:38:11.922Z,49.56
2017-05-28T18:40:39.467Z,49.67
2017-05-28T18:43:07.100Z,49.70
2017-05-28T18:45:34.684Z,49.64
2017-05-28T18:48:02.602Z,49.64
2017-05-28T18:50:30.179Z,49.54
2017-05-28T18:52:58.566Z,49.25
2017-05-28T18:55:26.161Z,49.59
2017-05-28T18:57:53.856Z,51.09
2017-05-28T19:00:21.585Z,49.78
2017-05-28T19:02:49.140Z,49.69
2017-05-28T19:05:16.692Z,50.96
2017-05-28T19:07:44.415Z,51.91
2017-05-28T19:10:11.991Z,52.64
2017-05-28T19:12:39.553Z,52.68
2017-05-28T19:15:07.134Z,53.01
2017-05-28T19:17:34.958Z,53.42
2017-05-28T19:20:02.768Z,51.88
2017-05-28T19:22:30.367Z,51.38
2017-05-28T19:24:57.919Z,51.37
2017-05-28T19:27:25.713Z,50.88
2017-05-28T19:29:53.336Z,52.10
2017-05-28T19:32:21.306Z,51.63
2017-05-28T19:34:48.868Z,51.32
2017-05-28T19:37:16.751Z,51.04
2017-05-28T19:39:44.350Z,51.11
2017-05-28T19:42:12.551Z,51.07
2017-05-28T19:44:40.353Z,51.08
2017-05-28T19:47:07.956Z,51.00
2017-05-28T19:49:35.503Z,51.27
2017-05-28T19:52:03.318Z,51.21
2017-05-28T19:54:30.898Z,51.13
2017-05-28T19:56:58.766Z,51.28
2017-05-28T19:59:26.307Z,51.25
2017-05-28T20:01:53.922Z,51.56
2017-05-28T20:04:21.737Z,51.83
2017-05-28T20:06:49.294Z,51.84
2017-05-28T20:09:16.871Z,52.71
2017-05-28T20:11:44.435Z,52.60
2017-05-28T20:14:11.974Z,53.21
2017-05-28T20:16:40.451Z,52.57
2017-05-28T20:19:07.997Z,52.81
2017-05-28T20:21:35.555Z,52.73
2017-05-28T20:24:03.206Z,52.64
2017-05-28T20:26:30.746Z,52.89
2017-05-28T20:28:58.299Z,52.73
2017-05-28T20:31:25.905Z,55.08
2017-05-28T20:33:53.466Z,53.33
2017-05-28T20:36:21.034Z,54.22
2017-05-28T20:38:48.634Z,54.22
2017-05-28T20:41:16.194Z,54.04
2017-05-28T20:43:43.746Z,53.71
2017-05-28T20:46:11.330Z,54.40
2017-05-28T20:48:39.111Z,53.71
2017-05-28T20:51:06.646Z,54.61
2017-05-28T20:53:34.257Z,53.54
2017-05-28T20:56:04.010Z,54.38
2017-05-28T20:58:31.811Z,54.08
2017-05-28T21:01:01.591Z,55.63
2017-05-28T21:03:31.471Z,55.21
2017-05-28T21:06:00.671Z,55.28
2017-05-28T21:08:32.387Z,55.09
2017-05-28T21:11:08.250Z,55.58
2017-05-28T21:13:40.764Z,56.66
2017-05-28T21:16:08.575Z,56.11
2017-05-28T21:18:36.345Z,55.57
2017-05-28T21:21:04.262Z,56.05
2017-05-28T21:23:31.848Z,55.82
2017-05-28T21:25:59.634Z,56.03
2017-05-28T21:28:27.191Z,56.44
2017-05-28T21:30:54.773Z,56.40
2017-05-28T21:33:22.306Z,56.38
2017-05-28T21:35:49.879Z,56.77
2017-05-28T21:38:18.299Z,56.40
2017-05-28T21:40:45.851Z,56.50
2017-05-28T21:43:13.736Z,56.64
2017-05-28T21:45:41.336Z,56.55
2017-05-28T21:48:08.886Z,56.84
2017-05-28T21:50:36.451Z,56.03
2017-05-28T21:53:04.083Z,55.56
2017-05-28T21:55:31.702Z,56.85
2017-05-28T21:57:59.491Z,56.78
2017-05-28T22:00:27.246Z,56.76
2017-05-28T22:02:54.803Z,56.56
2017-05-28T22:05:22.355Z,56.62
2017-05-28T22:07:49.960Z,56.73
2017-05-28T22:10:17.511Z,56.98
2017-05-28T22:12:45.297Z,56.33
2017-05-28T22:15:12.912Z,56.73
2017-05-28T22:17:40.494Z,57.08
2017-05-28T22:23:28.686Z,57.61
2017-05-28T22:26:08.965Z,58.67
2017-05-28T22:28:36.541Z,58.40
2017-05-28T22:31:04.134Z,58.11
2017-05-28T22:33:31.679Z,58.27
2017-05-28T22:35:59.255Z,58.77
2017-05-28T22:38:26.843Z,59.14
2017-05-28T22:40:54.398Z,58.99
2017-05-28T22:43:21.949Z,58.23
2017-05-28T22:45:49.563Z,58.96
2017-05-28T22:48:17.114Z,58.31
2017-05-28T22:50:44.706Z,58.63
2017-05-28T22:53:12.307Z,60.21
2017-05-28T22:55:39.919Z,59.50
2017-05-28T22:58:07.487Z,59.95
2017-05-28T23:00:35.276Z,59.58
2017-05-28T23:03:02.825Z,59.40
2017-05-28T23:05:30.637Z,59.01
2017-05-28T23:07:58.221Z,59.15
2017-05-28T23:10:25.770Z,59.30
2017-05-28T23:12:53.339Z,59.29
2017-05-28T23:15:20.995Z,58.55
2017-05-28T23:17:48.544Z,58.63
2017-05-28T23:20:16.091Z,60.88
2017-05-28T23:22:43.681Z,59.87
2017-05-28T23:25:11.271Z,59.35
2017-05-28T23:27:38.815Z,58.98
2017-05-28T23:30:06.824Z,58.73
2017-05-28T23:32:34.418Z,59.63
2017-05-28T23:35:01.974Z,59.38
2017-05-28T23:37:29.569Z,59.69
2017-05-28T23:39:57.115Z,58.94
2017-05-28T23:42:24.657Z,58.88
2017-05-28T23:44:52.571Z,59.68
2017-05-28T23:47:20.449Z,58.96
2017-05-28T23:49:48.012Z,58.77
2017-05-28T23:52:15.585Z,59.36
2017-05-28T23:54:43.136Z,59.38
2017-05-28T23:57:10.695Z,58.96
2017-05-28T23:59:38.307Z,59.48
